createdAt,value
2019-02-28T00:02:29.225Z,14.20
2019-02-28T00:04:59.533Z,14.05
2019-02-28T00:07:30.095Z,13.20
2019-02-28T00:10:01.054Z,15.10
2019-02-28T00:12:33.057Z,14.57
2019-02-28T00:15:05.145Z,14.30
2019-02-28T00:17:35.486Z,13.87
2019-02-28T00:20:07.118Z,13.98
2019-02-28T00:22:39.521Z,13.90
2019-02-28T00:25:09.958Z,13.90
2019-02-28T00:27:40.548Z,14.35
2019-02-28T00:30:15.899Z,13.60
2019-02-28T00:32:47.271Z,14.27
2019-02-28T00:35:17.586Z,13.87
2019-02-28T00:37:48.099Z,14.30
2019-02-28T00:40:18.705Z,13.72
2019-02-28T00:42:50.812Z,13.63
2019-02-28T00:45:23.261Z,13.05
2019-02-28T00:48:06.365Z,14.30
2019-02-28T00:50:36.824Z,13.67
2019-02-28T00:53:07.408Z,13.70
2019-02-28T00:55:38.103Z,13.75
2019-02-28T00:58:10.256Z,13.63
2019-02-28T01:00:40.800Z,13.03
2019-02-28T01:03:15.414Z,13.50
2019-02-28T01:05:46.851Z,13.98
2019-02-28T01:08:19.097Z,14.13
2019-02-28T01:10:52.330Z,13.77
2019-02-28T01:13:27.294Z,13.90
2019-02-28T01:15:55.034Z,13.70
2019-02-28T01:18:25.365Z,14.00
2019-02-28T01:20:56.294Z,14.38
2019-02-28T01:23:30.070Z,14.17
2019-02-28T01:26:00.496Z,14.58
2019-02-28T01:28:31.102Z,14.33
2019-02-28T01:31:01.773Z,13.53
2019-02-28T01:33:33.970Z,14.80
2019-02-28T01:36:04.428Z,15.43
2019-02-28T01:38:35.927Z,14.83
2019-02-28T01:41:08.381Z,15.70
2019-02-28T01:43:40.531Z,15.32
2019-02-28T01:46:10.723Z,16.47
2019-02-28T01:48:41.402Z,15.73
2019-02-28T01:51:14.185Z,16.40
2019-02-28T01:53:44.735Z,15.70
2019-02-28T01:56:16.695Z,14.53
2019-02-28T01:58:50.350Z,16.13
2019-02-28T02:01:24.310Z,16.77
2019-02-28T02:03:55.824Z,16.53
2019-02-28T02:06:26.584Z,15.90
2019-02-28T02:08:57.160Z,16.80
2019-02-28T02:11:27.467Z,16.30
2019-02-28T02:13:57.757Z,15.90
2019-02-28T02:16:29.141Z,18.55
2019-02-28T02:18:59.491Z,18.33
2019-02-28T02:21:31.376Z,17.85
2019-02-28T02:24:31.644Z,18.45
2019-02-28T02:26:52.223Z,18.55
2019-02-28T02:29:22.682Z,18.73
2019-02-28T02:32:01.299Z,18.45
2019-02-28T02:34:29.861Z,18.27
2019-02-28T02:37:01.956Z,19.73
2019-02-28T02:39:35.214Z,18.30
2019-02-28T02:42:09.790Z,19.65
2019-02-28T02:44:38.939Z,19.20
2019-02-28T02:47:12.877Z,19.70
2019-02-28T02:49:43.141Z,19.53
2019-02-28T02:52:29.901Z,19.36
2019-02-28T02:54:53.490Z,19.57
2019-02-28T02:57:24.514Z,19.55
2019-02-28T02:59:58.432Z,19.23
2019-02-28T03:02:33.082Z,18.73
2019-02-28T03:05:00.917Z,19.82
2019-02-28T03:07:31.396Z,17.77
2019-02-28T03:10:01.921Z,19.43
2019-02-28T03:12:32.986Z,18.30
2019-02-28T03:15:06.335Z,19.87
2019-02-28T03:17:36.836Z,19.67
2019-02-28T03:20:10.324Z,19.53
2019-02-28T03:22:40.613Z,20.53
2019-02-28T03:25:15.259Z,18.97
2019-02-28T03:27:44.267Z,19.37
2019-02-28T03:30:28.371Z,20.97
2019-02-28T03:32:51.602Z,18.57
2019-02-28T03:35:22.957Z,20.08
2019-02-28T03:37:57.524Z,21.67
2019-02-28T03:40:29.523Z,21.00
2019-02-28T03:43:05.451Z,23.33
2019-02-28T03:45:39.090Z,21.83
2019-02-28T03:48:05.347Z,21.87
2019-02-28T03:50:35.886Z,22.13
2019-02-28T03:53:06.545Z,22.48
2019-02-28T03:55:40.882Z,22.47
2019-02-28T03:58:11.630Z,23.10
2019-02-28T04:00:44.365Z,23.80
2019-02-28T04:03:14.671Z,23.17
2019-02-28T04:05:46.672Z,24.13
2019-02-28T04:08:17.179Z,22.37
2019-02-28T04:10:47.476Z,23.63
2019-02-28T04:13:19.267Z,22.63
2019-02-28T04:16:07.712Z,22.97
2019-02-28T04:18:29.019Z,22.70
2019-02-28T04:20:59.527Z,23.40
2019-02-28T04:23:35.459Z,22.97
2019-02-28T04:26:05.515Z,22.67
2019-02-28T04:28:36.088Z,24.47
2019-02-28T04:31:15.225Z,23.62
2019-02-28T04:33:46.419Z,24.80
2019-02-28T04:36:16.708Z,23.47
2019-02-28T04:38:55.346Z,26.60
2019-02-28T04:41:24.707Z,22.30
2019-02-28T04:43:55.019Z,26.13
2019-02-28T04:46:34.302Z,24.95
2019-02-28T04:49:06.583Z,24.72
2019-02-28T04:51:40.157Z,26.87
2019-02-28T04:54:11.277Z,25.17
2019-02-28T04:56:42.227Z,23.33
2019-02-28T04:59:14.690Z,24.53
2019-02-28T05:01:46.160Z,24.97
2019-02-28T05:04:16.745Z,25.77
2019-02-28T05:06:47.036Z,27.40
2019-02-28T05:09:17.594Z,27.20
2019-02-28T05:11:47.882Z,27.77
2019-02-28T05:17:08.039Z,26.65
2019-02-28T05:19:37.989Z,25.83
2019-02-28T05:22:08.310Z,26.77
2019-02-28T05:24:39.513Z,28.50
2019-02-28T05:27:12.855Z,29.23
2019-02-28T05:29:45.173Z,30.62
2019-02-28T05:32:15.483Z,30.43
2019-02-28T05:34:51.016Z,31.30
2019-02-28T05:37:23.237Z,32.20
2019-02-28T05:39:53.542Z,30.20
2019-02-28T05:42:24.111Z,31.67
2019-02-28T05:45:00.482Z,31.83
2019-02-28T05:47:29.396Z,31.03
2019-02-28T05:50:01.255Z,30.80
2019-02-28T05:52:33.746Z,29.67
2019-02-28T05:55:04.094Z,30.53
2019-02-28T05:57:34.395Z,30.73
2019-02-28T06:00:05.283Z,31.40
2019-02-28T06:02:40.748Z,31.93
2019-02-28T06:05:16.188Z,34.57
2019-02-28T06:07:46.517Z,32.77
2019-02-28T06:10:23.499Z,33.10
2019-02-28T06:12:48.929Z,32.80
2019-02-28T06:15:21.235Z,33.55
2019-02-28T06:17:54.968Z,34.40
2019-02-28T06:20:30.368Z,37.77
2019-02-28T06:23:06.309Z,37.17
2019-02-28T06:25:38.347Z,36.23
2019-02-28T06:28:08.667Z,38.10
2019-02-28T06:30:41.490Z,38.88
2019-02-28T06:33:11.255Z,43.90
2019-02-28T06:35:46.017Z,39.97
2019-02-28T06:38:21.102Z,39.03
2019-02-28T06:40:52.668Z,39.70
2019-02-28T06:43:23.206Z,38.80
2019-02-28T06:45:57.140Z,37.40
2019-02-28T06:48:30.765Z,38.73
2019-02-28T06:51:19.275Z,37.20
2019-02-28T06:53:55.323Z,37.33
2019-02-28T06:56:27.848Z,38.73
2019-02-28T06:59:09.791Z,38.17
2019-02-28T07:01:40.119Z,37.70
2019-02-28T07:04:11.481Z,36.73
2019-02-28T07:06:42.882Z,35.90
2019-02-28T07:09:15.126Z,34.63
2019-02-28T07:11:46.144Z,34.55
2019-02-28T07:17:16.432Z,36.60
2019-02-28T07:19:49.366Z,36.63
2019-02-28T07:22:21.175Z,36.25
2019-02-28T07:24:51.455Z,36.13
2019-02-28T07:27:23.379Z,36.93
2019-02-28T07:29:54.548Z,36.93
2019-02-28T07:32:26.196Z,35.30
2019-02-28T07:35:07.030Z,36.77
2019-02-28T07:37:34.244Z,33.70
2019-02-28T07:40:09.065Z,33.17
2019-02-28T07:42:47.526Z,33.33
2019-02-28T07:45:18.545Z,32.70
2019-02-28T07:47:52.766Z,33.73
2019-02-28T07:50:22.323Z,35.07
2019-02-28T07:52:53.256Z,33.27
2019-02-28T07:55:27.161Z,32.90
2019-02-28T07:58:09.822Z,32.87
2019-02-28T08:00:40.613Z,31.70
2019-02-28T08:03:18.527Z,32.32
2019-02-28T08:05:48.817Z,32.30
2019-02-28T08:08:26.488Z,31.80
2019-02-28T08:10:58.493Z,33.13
2019-02-28T08:13:28.876Z,31.07
2019-02-28T08:16:00.678Z,31.23
2019-02-28T08:18:32.305Z,29.27
2019-02-28T08:21:05.398Z,28.03
2019-02-28T08:23:39.157Z,29.07
2019-02-28T08:26:09.671Z,28.90
2019-02-28T08:28:41.504Z,30.07
2019-02-28T08:31:12.516Z,29.33
2019-02-28T08:33:42.847Z,30.20
2019-02-28T08:36:18.912Z,29.00
2019-02-28T08:38:52.816Z,30.60
2019-02-28T08:41:25.742Z,30.37
2019-02-28T08:43:59.570Z,31.27
2019-02-28T08:46:29.928Z,31.12
2019-02-28T08:49:06.274Z,31.05
2019-02-28T08:51:39.841Z,30.00
2019-02-28T08:54:11.494Z,30.63
2019-02-28T08:56:46.139Z,29.10
2019-02-28T08:59:22.537Z,29.40
2019-02-28T09:01:51.828Z,30.57
2019-02-28T09:04:22.489Z,30.40
2019-02-28T09:06:53.420Z,29.35
2019-02-28T09:09:25.687Z,28.32
2019-02-28T09:11:58.829Z,28.75
2019-02-28T09:14:37.228Z,27.43
2019-02-28T09:17:07.375Z,28.50
2019-02-28T09:19:45.491Z,28.84
2019-02-28T09:22:19.446Z,28.60
2019-02-28T09:24:50.702Z,28.80
2019-02-28T09:27:24.842Z,27.87
2019-02-28T09:29:55.617Z,28.73
2019-02-28T09:32:26.491Z,26.70
2019-02-28T09:34:56.834Z,28.42
2019-02-28T09:37:29.800Z,28.33
2019-02-28T09:39:59.786Z,26.83
2019-02-28T09:42:32.149Z,25.10
2019-02-28T09:45:06.723Z,26.43
2019-02-28T09:47:35.158Z,27.45
2019-02-28T09:50:06.340Z,26.80
2019-02-28T09:52:41.248Z,29.27
2019-02-28T09:55:09.197Z,26.05
2019-02-28T09:57:39.932Z,25.57
2019-02-28T10:00:13.041Z,25.97
2019-02-28T10:02:45.021Z,26.37
2019-02-28T10:05:17.413Z,25.37
2019-02-28T10:07:48.334Z,24.77
2019-02-28T10:10:20.798Z,26.27
2019-02-28T10:12:54.311Z,25.70
2019-02-28T10:15:25.114Z,25.86
2019-02-28T10:17:55.796Z,23.97
2019-02-28T10:20:30.476Z,25.23
2019-02-28T10:23:02.878Z,23.10
2019-02-28T10:25:34.034Z,23.23
2019-02-28T10:28:12.541Z,24.35
2019-02-28T10:30:43.194Z,22.48
2019-02-28T10:33:19.506Z,23.73
2019-02-28T10:35:51.721Z,23.60
2019-02-28T10:38:22.060Z,23.75
2019-02-28T10:41:03.977Z,24.87
2019-02-28T10:43:51.442Z,24.77
2019-02-28T10:46:09.055Z,25.12
2019-02-28T10:48:50.620Z,26.20
2019-02-28T10:51:14.363Z,24.67
2019-02-28T10:53:49.867Z,25.33
2019-02-28T10:56:29.233Z,26.37
2019-02-28T10:58:56.369Z,26.55
2019-02-28T11:01:26.820Z,26.20
2019-02-28T11:04:07.453Z,25.90
2019-02-28T11:06:32.684Z,26.67
2019-02-28T11:09:03.074Z,26.43
2019-02-28T11:11:35.204Z,26.83
2019-02-28T11:14:08.866Z,25.43
2019-02-28T11:16:44.091Z,25.80
2019-02-28T11:19:13.841Z,26.87
2019-02-28T11:21:47.125Z,27.35
2019-02-28T11:24:27.758Z,26.17
2019-02-28T11:26:58.573Z,25.90
2019-02-28T11:29:35.145Z,25.63
2019-02-28T11:32:11.811Z,26.25
2019-02-28T11:34:40.265Z,27.93
2019-02-28T11:37:14.481Z,28.52
2019-02-28T11:39:44.877Z,27.55
2019-02-28T11:42:15.698Z,26.93
2019-02-28T11:44:47.623Z,28.23
2019-02-28T11:47:18.991Z,28.20
2019-02-28T11:49:53.921Z,28.05
2019-02-28T11:52:29.678Z,28.77
2019-02-28T11:55:00.353Z,28.73
2019-02-28T11:57:32.033Z,28.72
2019-02-28T12:00:03.220Z,28.62
2019-02-28T12:02:36.739Z,29.87
2019-02-28T12:05:07.673Z,31.13
2019-02-28T12:07:39.360Z,32.85
2019-02-28T12:10:11.723Z,35.07
2019-02-28T12:12:44.720Z,34.48
2019-02-28T12:15:16.947Z,36.13
2019-02-28T12:17:47.627Z,36.40
2019-02-28T12:20:28.424Z,37.43
2019-02-28T12:23:01.298Z,36.20
2019-02-28T12:25:32.905Z,36.23
2019-02-28T12:28:08.476Z,36.97
2019-02-28T12:30:40.286Z,36.87
2019-02-28T12:33:15.350Z,37.30
2019-02-28T12:35:46.179Z,37.03
2019-02-28T12:38:16.989Z,37.33
2019-02-28T12:40:50.362Z,37.87
2019-02-28T12:43:21.067Z,39.43
2019-02-28T12:45:53.546Z,38.07
2019-02-28T12:48:23.990Z,39.65
2019-02-28T12:50:58.594Z,39.73
2019-02-28T12:53:35.405Z,41.75
2019-02-28T12:56:05.851Z,41.23
2019-02-28T12:58:42.248Z,40.40
2019-02-28T13:01:12.796Z,40.27
2019-02-28T13:03:54.610Z,38.60
2019-02-28T13:06:23.697Z,37.00
2019-02-28T13:08:54.224Z,34.85
2019-02-28T13:11:27.981Z,32.70
2019-02-28T13:14:02.619Z,32.05
2019-02-28T13:16:31.261Z,30.10
2019-02-28T13:19:07.580Z,29.23
2019-02-28T13:21:43.708Z,27.80
2019-02-28T13:24:18.388Z,28.90
2019-02-28T13:26:54.653Z,29.07
2019-02-28T13:29:28.813Z,28.95
2019-02-28T13:32:01.391Z,28.53
2019-02-28T13:34:34.298Z,28.83
2019-02-28T13:37:04.653Z,28.00
2019-02-28T13:39:39.333Z,29.33
2019-02-28T13:42:09.630Z,28.97
2019-02-28T13:44:40.102Z,29.43
2019-02-28T13:47:11.683Z,29.13
2019-02-28T13:49:42.335Z,30.70
2019-02-28T13:52:18.876Z,32.67
2019-02-28T13:54:46.205Z,32.27
2019-02-28T13:57:17.934Z,33.20
2019-02-28T13:59:52.756Z,35.93
2019-02-28T14:02:26.222Z,38.30
2019-02-28T14:05:02.737Z,35.33
2019-02-28T14:07:33.863Z,36.07
2019-02-28T14:10:11.532Z,38.20
2019-02-28T14:12:43.659Z,37.03
2019-02-28T14:15:17.508Z,36.37
2019-02-28T14:17:47.945Z,35.63
2019-02-28T14:20:20.435Z,34.30
2019-02-28T14:22:54.937Z,34.67
2019-02-28T14:25:25.609Z,32.97
2019-02-28T14:27:56.871Z,32.90
2019-02-28T14:30:30.195Z,33.50
2019-02-28T14:33:00.519Z,32.93
2019-02-28T14:35:35.180Z,32.87
2019-02-28T14:38:10.582Z,32.37
2019-02-28T14:40:42.069Z,33.62
2019-02-28T14:43:23.024Z,33.50
2019-02-28T14:45:55.850Z,32.15
2019-02-28T14:48:26.377Z,32.65
2019-02-28T14:50:58.972Z,31.07
2019-02-28T14:53:29.696Z,31.75
2019-02-28T14:56:04.295Z,30.33
2019-02-28T14:58:33.367Z,30.07
2019-02-28T15:01:04.225Z,29.13
2019-02-28T15:03:42.866Z,29.70
2019-02-28T15:06:13.513Z,29.57
2019-02-28T15:08:47.423Z,27.32
2019-02-28T15:11:19.034Z,28.07
2019-02-28T15:13:49.682Z,25.60
2019-02-28T15:16:21.666Z,26.23
2019-02-28T15:18:56.111Z,24.43
2019-02-28T15:21:26.788Z,22.42
2019-02-28T15:24:08.545Z,24.80
2019-02-28T15:26:37.392Z,21.23
2019-02-28T15:29:09.128Z,23.67
2019-02-28T15:31:40.415Z,21.07
2019-02-28T15:34:13.094Z,20.16
2019-02-28T15:36:43.416Z,19.07
2019-02-28T15:39:18.988Z,19.20
2019-02-28T15:41:48.030Z,20.30
2019-02-28T15:44:18.670Z,17.98
2019-02-28T15:46:48.992Z,17.27
2019-02-28T15:49:20.773Z,16.20
2019-02-28T15:51:51.128Z,15.67
2019-02-28T15:54:25.127Z,15.80
2019-02-28T15:56:55.457Z,14.97
2019-02-28T15:59:29.651Z,14.17
2019-02-28T16:02:06.357Z,12.90
2019-02-28T16:04:35.114Z,13.13
2019-02-28T16:07:05.775Z,14.03
2019-02-28T16:09:37.922Z,13.70
2019-02-28T16:12:15.168Z,14.33
2019-02-28T16:14:45.990Z,13.20
2019-02-28T16:17:17.375Z,13.08
2019-02-28T16:19:47.791Z,13.53
2019-02-28T16:22:19.091Z,13.10
2019-02-28T16:24:49.542Z,13.13
2019-02-28T16:27:22.424Z,11.83
2019-02-28T16:29:52.337Z,12.80
2019-02-28T16:32:25.841Z,11.77
2019-02-28T16:34:57.968Z,11.95
2019-02-28T16:37:34.778Z,10.43
2019-02-28T16:40:04.217Z,11.20
2019-02-28T16:42:34.532Z,10.77
2019-02-28T16:45:10.438Z,11.50
2019-02-28T16:47:42.066Z,11.13
2019-02-28T16:50:20.197Z,10.43
2019-02-28T16:52:50.929Z,10.03
2019-02-28T16:55:24.433Z,10.20
2019-02-28T16:57:54.839Z,9.57
2019-02-28T17:00:42.375Z,8.15
2019-02-28T17:03:07.299Z,9.63
2019-02-28T17:05:38.179Z,8.60
2019-02-28T17:08:10.256Z,7.87
2019-02-28T17:10:44.252Z,7.08
2019-02-28T17:13:45.344Z,6.97
2019-02-28T17:16:38.167Z,6.30
2019-02-28T17:19:11.400Z,6.57
2019-02-28T17:21:43.882Z,6.23
2019-02-28T17:24:18.576Z,6.33
2019-02-28T17:26:54.879Z,5.53
2019-02-28T17:29:38.125Z,6.13
2019-02-28T17:32:14.747Z,5.87
2019-02-28T17:34:46.259Z,6.03
2019-02-28T17:37:25.508Z,6.40
2019-02-28T17:39:58.092Z,5.33
2019-02-28T17:42:30.388Z,4.50
2019-02-28T17:45:19.393Z,4.50
2019-02-28T17:48:31.135Z,4.97
2019-02-28T17:51:22.385Z,4.60
2019-02-28T17:54:42.308Z,5.40
2019-02-28T17:57:31.869Z,4.67
2019-02-28T18:00:52.869Z,6.67
2019-02-28T18:04:04.817Z,7.47
2019-02-28T18:07:23.651Z,7.27
2019-02-28T18:10:03.772Z,6.50
2019-02-28T18:12:57.382Z,5.97
2019-02-28T18:16:36.826Z,7.60
2019-02-28T18:19:45.222Z,8.20
2019-02-28T18:22:57.747Z,8.03
2019-02-28T18:25:57.114Z,7.17
2019-02-28T18:29:11.744Z,7.67
2019-02-28T18:31:42.463Z,6.77
2019-02-28T18:34:24.792Z,7.08
2019-02-28T18:37:00.441Z,6.93
2019-02-28T18:39:30.507Z,6.90
2019-02-28T18:42:01.178Z,7.03
2019-02-28T18:44:31.624Z,6.13
2019-02-28T18:47:04.323Z,6.47
2019-02-28T18:49:36.432Z,6.10
2019-02-28T18:52:08.153Z,5.83
2019-02-28T18:54:44.548Z,5.53
2019-02-28T18:57:20.326Z,5.47
2019-02-28T18:59:52.609Z,5.83
2019-02-28T19:02:25.884Z,6.50
2019-02-28T19:04:59.599Z,5.83
2019-02-28T19:07:40.713Z,6.47
2019-02-28T19:10:11.424Z,6.30
2019-02-28T19:12:43.134Z,6.80
2019-02-28T19:15:13.873Z,6.93
2019-02-28T19:17:45.532Z,6.37
2019-02-28T19:20:15.897Z,6.77
2019-02-28T19:22:50.716Z,5.45
2019-02-28T19:25:22.310Z,4.20
2019-02-28T19:27:53.913Z,3.95
2019-02-28T19:30:24.425Z,4.07
2019-02-28T19:32:56.343Z,5.78
2019-02-28T19:35:39.198Z,5.90
2019-02-28T19:38:07.545Z,4.33
2019-02-28T19:40:38.133Z,4.90
2019-02-28T19:43:12.612Z,5.10
2019-02-28T19:45:45.206Z,5.03
2019-02-28T19:48:17.135Z,5.40
2019-02-28T19:50:51.927Z,5.10
2019-02-28T19:53:24.378Z,5.58
2019-02-28T19:55:58.523Z,5.70
2019-02-28T19:58:28.854Z,5.60
2019-02-28T20:01:02.804Z,5.60
2019-02-28T20:03:33.525Z,5.60
2019-02-28T20:06:05.266Z,5.50
2019-02-28T20:08:36.992Z,5.00
2019-02-28T20:11:07.717Z,5.90
2019-02-28T20:13:38.353Z,5.83
2019-02-28T20:16:10.694Z,6.45
2019-02-28T20:18:41.023Z,6.63
2019-02-28T20:21:14.137Z,5.83
2019-02-28T20:23:44.541Z,7.23
2019-02-28T20:26:15.245Z,6.63
2019-02-28T20:28:53.799Z,6.50
2019-02-28T20:31:24.744Z,6.87
2019-02-28T20:33:56.372Z,6.50
2019-02-28T20:36:31.069Z,6.80
2019-02-28T20:39:01.499Z,7.33
2019-02-28T20:41:34.591Z,7.42
2019-02-28T20:44:13.102Z,8.40
2019-02-28T20:46:43.471Z,8.33
2019-02-28T20:49:15.827Z,7.67
2019-02-28T20:51:55.199Z,8.20
2019-02-28T20:54:21.214Z,8.20
2019-02-28T20:56:51.860Z,8.80
2019-02-28T20:59:23.159Z,9.43
2019-02-28T21:01:53.548Z,9.20
2019-02-28T21:04:29.669Z,9.47
2019-02-28T21:07:00.458Z,8.93
2019-02-28T21:09:44.611Z,8.40
2019-02-28T21:12:27.394Z,8.50
2019-02-28T21:14:50.124Z,7.72
2019-02-28T21:17:29.178Z,7.80
2019-02-28T21:19:57.571Z,9.83
2019-02-28T21:22:29.009Z,9.00
2019-02-28T21:25:04.094Z,10.35
2019-02-28T21:27:34.077Z,10.93
2019-02-28T21:30:05.793Z,10.57
2019-02-28T21:32:39.171Z,9.58
2019-02-28T21:35:11.844Z,10.43
2019-02-28T21:37:42.730Z,9.90
2019-02-28T21:40:15.865Z,10.23
2019-02-28T21:42:46.513Z,9.50
2019-02-28T21:45:19.260Z,9.54
2019-02-28T21:47:49.674Z,9.63
2019-02-28T21:50:24.659Z,10.23
2019-02-28T21:52:55.127Z,9.50
2019-02-28T21:55:27.361Z,9.34
2019-02-28T21:57:58.951Z,10.53
2019-02-28T22:00:39.301Z,10.57
2019-02-28T22:03:10.273Z,10.28
2019-02-28T22:05:40.807Z,11.20
2019-02-28T22:08:11.493Z,11.90
2019-02-28T22:10:41.831Z,11.37
2019-02-28T22:13:13.669Z,11.27
2019-02-28T22:15:46.339Z,12.40
2019-02-28T22:18:21.180Z,11.20
2019-02-28T22:20:56.172Z,12.40
2019-02-28T22:23:26.691Z,12.50
2019-02-28T22:26:01.953Z,12.30
2019-02-28T22:28:34.296Z,12.33
2019-02-28T22:31:22.465Z,11.80
2019-02-28T22:34:02.910Z,12.17
2019-02-28T22:36:38.783Z,11.57
2019-02-28T22:39:10.841Z,12.50
2019-02-28T22:41:41.733Z,12.15
2019-02-28T22:44:14.536Z,12.57
2019-02-28T22:46:46.659Z,12.68
2019-02-28T22:49:18.290Z,12.57
2019-02-28T22:51:48.731Z,12.73
2019-02-28T22:54:23.219Z,11.83
2019-02-28T22:56:55.457Z,13.27
2019-02-28T22:59:27.169Z,12.88
2019-02-28T23:01:58.061Z,12.20
2019-02-28T23:04:28.410Z,12.00
2019-02-28T23:06:59.491Z,12.17
2019-02-28T23:09:31.033Z,11.57
2019-02-28T23:12:01.377Z,11.33
2019-02-28T23:14:31.807Z,10.83
2019-02-28T23:17:02.305Z,11.63
2019-02-28T23:19:32.960Z,9.95
2019-02-28T23:22:10.086Z,10.57
2019-02-28T23:24:39.278Z,10.63
2019-02-28T23:27:21.191Z,10.67
2019-02-28T23:30:17.144Z,10.90
2019-02-28T23:33:04.602Z,10.10
2019-02-28T23:35:37.663Z,9.77
2019-02-28T23:38:09.191Z,9.33
2019-02-28T23:40:39.774Z,8.97
2019-02-28T23:43:10.465Z,9.57
2019-02-28T23:45:40.788Z,8.78
2019-02-28T23:48:13.507Z,9.48
2019-02-28T23:50:46.392Z,8.80
2019-02-28T23:53:18.043Z,8.77
2019-02-28T23:55:53.122Z,8.80
2019-02-28T23:58:23.456Z,8.53
